Brownfield, ME (04010)

5:37 PM EDT on August 04, 2015 (GMT -0400)
misty lane | | Change Station
CLOSE
Current Station
Personal Weather Station
Location: Brownfield, ME
Elevation: 404 ft
Nearby Weather Stations

Elev 404 ft 43.94 °N, 70.87 °W | Updated 9 minutes ago

Rain
Rain
66.3 °F
Feels Like 66.3 °F
N
0.0
Wind Variable Wind from SW
Gusts 0.0 mph

Today
High -- | Low -- °F
--% Chance of Precip.
Yesterday
High -- | Low -- °F
Precip. -- in
5:34 AM 8:03 PM
Waning Gibbous, 74% visible
Pressure 29.81 in
Visibility 10.0 miles
Clouds Clear
Dew Point 64 °F
Humidity 92%
Rainfall 0.17 in
Snow Depth Not available.
UV 3 out of 12
Pollen 4.90 out of 12
Air Quality Not available.
Flu Activity Not available.
METAR KIZG 042054Z AUTO 20004KT 10SM CLR 21/19 A2981 RMK AO2 LTG DSNT SE-SW RAE19 SLP094 P0003 60004 T02060189 50009

More Conditions Fewer Conditions

Pressure 29.81 in
Visibility 10.0 miles
Clouds Clear
Dew Point 64 °F
Humidity 92%
Rainfall 0.17 in
Snow Depth Not available.
UV 3 out of 12
Pollen 4.90 out of 12
Air Quality Not available.
Flu Activity Not available.
METAR KIZG 042054Z AUTO 20004KT 10SM CLR 21/19 A2981 RMK AO2 LTG DSNT SE-SW RAE19 SLP094 P0003 60004 T02060189 50009

More Conditions Fewer Conditions

10-Day Weather Forecast

×

Almanac

Astronomy

Aug. 04, 2015 Rise Set
Actual Time
Civil Twilight
Nautical Twilight
Astronomical Twilight
Moon
Length of Visible Light
Length of Day
Tomorrow will be .
, % of the Moon is Illuminated

Today's Extremes

State Highs State Lows

Community

WunderPhotos

Upload Photos

1,843,990 photos uploaded!

WunderBlogs® & News

Nearby

Air Quality

  Air Quality AQ Index Pollutant
Not available.

Snow Depth

Station Depth Elevation

Earthquake Activity

City Distance Mag. Time & Date
Minimum magnitude displayed is 2.5.

Coastal Water Temperatures

Place Temperature

Stations

Nearby Weather Stations

Station Location Temp. Windchill Dew Point Humidity Wind Precip. Elev Updated Type
                   
Severe Thunderstorm Watch
Statement as of 3:43 PM EDT on August 04, 2015

Severe Thunderstorm Watch 469 remains in effect until 800 PM EDT

ME
. Maine counties included are

Androscoggin Aroostook Cumberland
Franklin Hancock Kennebec
Knox Lincoln Oxford
Penobscot Piscataquis Sagadahoc
Somerset Waldo Washington
York